Time;durP1;ratioP1;P1;durP2;ratioP2;P2;SDS_P1;SDS_P2;PMS_P1;PMS_P2;Temp;Humidity;BMP_temperature;BMP_pressure;BME280_temperature;BME280_humidity;BME280_pressure;Samples;Min_cycle;Max_cycle;Signal;HPM_P1;HPM_P2
2023/01/10 00:01:26;;;;;;;1.13;0.57;;;;;;;5.30;92.67;94951.53;4375333;32;20280;-61
2023/01/10 00:03:51;;;;;;;0.13;0.13;;;;;;;5.33;91.92;94943.09;4357284;32;20346;-61
2023/01/10 00:06:17;;;;;;;0.57;0.57;;;;;;;5.32;91.24;94948.63;4363973;32;20198;-61
2023/01/10 00:08:42;;;;;;;0.20;0.20;;;;;;;5.33;91.25;94951.00;4381086;32;20185;-61
2023/01/10 00:13:53;;;;;;;0.20;0.20;;;;;;;5.42;91.42;94973.03;4375116;32;20212;-61
2023/01/10 00:16:19;;;;;;;0.17;0.17;;;;;;;5.38;90.89;94969.38;4388609;32;20272;-61
2023/01/10 00:18:47;;;;;;;0.60;0.60;;;;;;;5.37;90.46;94973.06;4377927;32;20286;-61
2023/01/10 00:21:13;;;;;;;0.10;0.10;;;;;;;5.37;90.71;94994.13;4368547;32;20181;-61
2023/01/10 00:23:39;;;;;;;0.17;0.17;;;;;;;5.33;90.80;94979.91;4389462;32;20309;-61
2023/01/10 00:26:04;;;;;;;0.20;0.20;;;;;;;5.20;90.61;94985.72;4390080;32;20195;-61
2023/01/10 00:28:33;;;;;;;0.17;0.17;;;;;;;5.29;91.06;94986.75;4379754;32;20192;-61
2023/01/10 00:31:05;;;;;;;0.27;0.27;;;;;;;5.49;89.38;94988.53;4388578;32;20199;-61
2023/01/10 00:33:35;;;;;;;0.57;0.57;;;;;;;5.50;89.49;94993.53;4362021;32;20326;-61
2023/01/10 00:36:03;;;;;;;0.20;0.20;;;;;;;5.67;89.02;94993.19;4367162;32;20307;-61
2023/01/10 00:38:30;;;;;;;0.00;0.00;;;;;;;5.60;89.14;94995.34;4375020;32;20295;-61
2023/01/10 00:40:55;;;;;;;0.10;0.10;;;;;;;5.73;88.51;95001.84;4376908;32;20273;-61
2023/01/10 00:46:05;;;;;;;1.70;0.60;;;;;;;5.56;89.37;95004.03;4380844;32;20203;-61
2023/01/10 00:48:30;;;;;;;0.67;0.43;;;;;;;5.54;89.52;95017.47;4371817;32;20340;-61
2023/01/10 00:50:55;;;;;;;0.10;0.10;;;;;;;5.60;89.35;95012.97;4378126;32;20247;-61
2023/01/10 00:53:21;;;;;;;0.10;0.10;;;;;;;5.46;89.92;95026.69;4375317;32;20184;-61
2023/01/10 00:55:47;;;;;;;0.10;0.10;;;;;;;5.47;89.13;95030.87;4346072;32;20220;-61
2023/01/10 00:58:13;;;;;;;0.20;0.20;;;;;;;5.52;89.65;95035.34;4379920;32;20180;-61
2023/01/10 01:00:39;;;;;;;0.60;0.47;;;;;;;5.65;89.28;95034.78;4361521;32;20191;-61
2023/01/10 01:03:06;;;;;;;1.17;0.13;;;;;;;5.56;88.80;95046.13;4385616;32;20284;-61
2023/01/10 01:05:32;;;;;;;0.00;0.00;;;;;;;5.55;88.59;95044.56;4387120;32;20199;-61
2023/01/10 01:07:57;;;;;;;0.00;0.00;;;;;;;5.36;89.54;95046.97;4387389;32;20268;-61
2023/01/10 01:10:26;;;;;;;0.10;0.10;;;;;;;5.63;88.48;95046.63;4367097;32;20264;-61
2023/01/10 01:12:55;;;;;;;0.10;0.10;;;;;;;5.61;88.13;95052.16;4388047;32;20215;-60
2023/01/10 01:15:21;;;;;;;0.00;0.00;;;;;;;5.61;88.50;95051.38;4377454;32;20277;-61
2023/01/10 01:17:47;;;;;;;0.00;0.00;;;;;;;5.62;88.40;95060.81;4378585;32;20323;-61
2023/01/10 01:20:13;;;;;;;0.10;0.10;;;;;;;5.63;88.39;95073.72;4390712;32;20276;-60
2023/01/10 01:22:39;;;;;;;0.07;0.07;;;;;;;5.72;88.70;95077.37;4370530;32;20246;-61
2023/01/10 01:25:05;;;;;;;0.20;0.20;;;;;;;5.63;88.67;95067.66;4358675;32;20334;-61
2023/01/10 01:27:30;;;;;;;0.10;0.10;;;;;;;5.67;89.11;95081.88;4371378;32;20188;-61
2023/01/10 01:29:56;;;;;;;0.20;0.17;;;;;;;5.63;89.73;95092.13;4370131;32;20242;-61
2023/01/10 01:32:22;;;;;;;0.10;0.10;;;;;;;5.60;88.19;95086.66;4365220;32;20196;-61
2023/01/10 01:34:47;;;;;;;0.20;0.20;;;;;;;5.69;88.17;95095.53;4368595;32;20195;-61
2023/01/10 01:37:12;;;;;;;0.20;0.20;;;;;;;5.64;87.87;95100.81;4373987;32;20196;-61
2023/01/10 01:39:38;;;;;;;0.00;0.00;;;;;;;5.71;87.77;95101.34;4368375;32;20189;-61
2023/01/10 01:42:04;;;;;;;0.20;0.20;;;;;;;5.72;88.25;95114.22;4385422;32;20237;-61
2023/01/10 01:44:34;;;;;;;0.00;0.00;;;;;;;5.59;88.20;95109.53;4362927;32;20186;-61
2023/01/10 01:47:05;;;;;;;0.30;0.30;;;;;;;5.58;87.92;95107.97;4380005;32;20264;-61
2023/01/10 01:49:33;;;;;;;0.40;0.40;;;;;;;5.69;87.57;95119.22;4374780;32;20272;-62
2023/01/10 01:52:04;;;;;;;2.13;0.30;;;;;;;5.61;88.03;95123.19;4385906;32;20273;-61
2023/01/10 01:54:31;;;;;;;0.20;0.20;;;;;;;5.68;87.93;95134.22;4388928;32;20272;-62
2023/01/10 01:57:03;;;;;;;0.00;0.00;;;;;;;5.71;87.33;95131.06;4388818;32;20375;-61
2023/01/10 01:59:39;;;;;;;0.10;0.10;;;;;;;5.77;87.74;95139.75;4374040;32;20273;-61
2023/01/10 02:02:12;;;;;;;0.07;0.07;;;;;;;5.78;87.64;95141.31;4369100;32;20269;-61
2023/01/10 02:04:44;;;;;;;0.20;0.20;;;;;;;5.90;87.12;95147.09;4378829;32;20402;-61
2023/01/10 02:07:11;;;;;;;0.30;0.30;;;;;;;5.69;88.05;95148.19;4387983;32;20272;-61
2023/01/10 02:09:44;;;;;;;0.20;0.20;;;;;;;5.63;87.97;95152.66;4373695;32;20340;-61
2023/01/10 02:12:10;;;;;;;0.03;0.03;;;;;;;5.60;87.99;95152.41;4369417;32;20276;-62
2023/01/10 02:14:37;;;;;;;0.20;0.20;;;;;;;5.52;87.90;95145.84;4388414;32;20272;-61
2023/01/10 02:17:02;;;;;;;0.20;0.20;;;;;;;5.64;88.11;95148.19;4374202;32;20268;-62
2023/01/10 02:20:02;;;;;;;0.23;0.23;;;;;;;5.71;87.83;95151.34;4363948;32;20302;-62
2023/01/10 02:22:49;;;;;;;0.20;0.20;;;;;;;5.72;87.40;95160.81;4366548;32;20257;-61
2023/01/10 02:25:42;;;;;;;0.07;0.07;;;;;;;5.61;87.50;95157.38;4369165;32;20359;-62
2023/01/10 02:28:33;;;;;;;3.87;0.43;;;;;;;5.80;86.51;95168.16;4385836;32;20284;-61
2023/01/10 02:31:13;;;;;;;0.10;0.10;;;;;;;5.57;87.08;95169.53;4377217;32;20282;-61
2023/01/10 02:34:34;;;;;;;0.07;0.07;;;;;;;5.68;86.67;95176.34;4364849;32;20272;-61
2023/01/10 02:37:40;;;;;;;0.00;0.00;;;;;;;5.70;86.85;95173.44;4376244;32;20321;-61
2023/01/10 02:40:21;;;;;;;0.47;0.47;;;;;;;5.53;87.51;95177.16;4387658;32;20302;-61
2023/01/10 02:43:08;;;;;;;0.27;0.27;;;;;;;5.45;87.54;95172.41;4373178;32;20284;-62
2023/01/10 02:45:57;;;;;;;0.00;0.00;;;;;;;5.52;87.38;95172.94;4388349;32;20300;-61
2023/01/10 02:48:22;;;;;;;0.10;0.10;;;;;;;5.50;87.21;95180.31;4373531;32;20344;-61
2023/01/10 02:51:07;;;;;;;0.00;0.00;;;;;;;5.48;87.64;95181.63;4386305;32;20283;-62
2023/01/10 02:53:43;;;;;;;0.00;0.00;;;;;;;5.58;87.16;95186.88;4369502;32;20189;-61
2023/01/10 02:56:24;;;;;;;0.13;0.13;;;;;;;5.47;88.10;95182.66;4365094;32;20290;-61
2023/01/10 02:59:14;;;;;;;0.10;0.10;;;;;;;5.31;88.60;95187.16;4375950;32;20276;-62
2023/01/10 03:01:42;;;;;;;0.00;0.00;;;;;;;5.43;87.54;95190.28;4372984;32;20273;-61
2023/01/10 03:04:36;;;;;;;0.10;0.10;;;;;;;5.51;86.94;95192.41;4375628;32;20295;-61
2023/01/10 03:07:10;;;;;;;0.03;0.03;;;;;;;5.33;87.81;95195.56;4381765;32;20354;-61
2023/01/10 03:10:06;;;;;;;0.00;0.00;;;;;;;5.22;88.41;95203.69;4377818;32;20280;-61
2023/01/10 03:12:47;;;;;;;0.00;0.00;;;;;;;5.41;87.56;95202.91;4386027;32;20303;-61
2023/01/10 03:15:17;;;;;;;0.10;0.10;;;;;;;5.40;86.67;95209.22;4376091;32;20292;-61
2023/01/10 03:17:46;;;;;;;0.00;0.00;;;;;;;5.32;87.17;95216.88;4385934;32;20295;-61
2023/01/10 03:20:12;;;;;;;0.30;0.30;;;;;;;5.29;87.48;95217.38;4369185;32;20371;-61
2023/01/10 03:22:40;;;;;;;0.10;0.10;;;;;;;5.26;87.64;95216.06;4389470;32;20368;-61
2023/01/10 03:25:09;;;;;;;0.27;0.27;;;;;;;5.27;87.60;95222.13;4355271;32;20208;-61
2023/01/10 03:28:03;;;;;;;0.00;0.00;;;;;;;5.30;87.61;95229.50;4361798;32;20257;-61
2023/01/10 03:30:32;;;;;;;0.00;0.00;;;;;;;5.49;86.81;95236.59;4350416;32;20273;-62
2023/01/10 03:32:58;;;;;;;0.10;0.10;;;;;;;5.46;86.60;95245.00;4366687;32;20330;-61
2023/01/10 03:35:51;;;;;;;0.00;0.00;;;;;;;5.26;87.14;95252.87;4389847;32;20284;-62
2023/01/10 03:38:34;;;;;;;0.03;0.03;;;;;;;5.12;87.83;95257.06;4389711;32;20272;-62
2023/01/10 03:41:50;;;;;;;0.10;0.10;;;;;;;5.36;86.61;95263.44;4389242;32;20278;-61
2023/01/10 03:44:43;;;;;;;0.00;0.00;;;;;;;5.24;86.67;95264.72;4360926;32;20368;-62
2023/01/10 03:47:29;;;;;;;0.10;0.10;;;;;;;5.30;86.96;95274.19;4363341;32;20321;-62
2023/01/10 03:50:10;;;;;;;0.07;0.07;;;;;;;5.26;86.49;95279.19;4377624;32;20311;-62
2023/01/10 03:52:39;;;;;;;0.10;0.10;;;;;;;5.34;86.52;95291.84;4373620;32;20356;-61
2023/01/10 03:55:05;;;;;;;0.10;0.10;;;;;;;5.46;86.53;95289.72;4390463;32;20276;-61
2023/01/10 03:57:31;;;;;;;0.27;0.27;;;;;;;5.53;85.77;95298.16;4389839;32;20345;-61
2023/01/10 03:59:58;;;;;;;0.10;0.10;;;;;;;5.51;86.50;95295.00;4376570;32;20276;-61
2023/01/10 04:02:30;;;;;;;0.00;0.00;;;;;;;5.58;86.80;95300.03;4389331;32;20215;-62
2023/01/10 04:04:57;;;;;;;0.10;0.10;;;;;;;5.60;85.96;95305.03;4349127;32;20288;-61
2023/01/10 04:07:24;;;;;;;0.20;0.20;;;;;;;5.73;86.15;95305.28;4381495;32;20287;-62
2023/01/10 04:09:50;;;;;;;0.10;0.10;;;;;;;5.80;85.75;95312.94;4373139;32;20363;-61
2023/01/10 04:12:15;;;;;;;0.10;0.10;;;;;;;5.84;85.63;95316.59;4357015;32;20331;-62
2023/01/10 04:14:41;;;;;;;0.00;0.00;;;;;;;5.85;85.44;95313.69;4372794;32;20207;-61
2023/01/10 04:17:06;;;;;;;0.10;0.10;;;;;;;5.79;85.25;95327.13;4373071;32;20314;-61
2023/01/10 04:19:32;;;;;;;0.10;0.10;;;;;;;5.71;85.65;95330.28;4373274;32;20188;-61
2023/01/10 04:21:57;;;;;;;0.43;0.43;;;;;;;5.78;85.52;95333.47;4362905;32;20267;-61
2023/01/10 04:24:22;;;;;;;0.00;0.00;;;;;;;5.60;86.07;95339.22;4372704;32;20189;-62
2023/01/10 04:26:48;;;;;;;0.10;0.10;;;;;;;5.65;85.69;95355.00;4384093;32;20241;-62
2023/01/10 04:29:13;;;;;;;0.53;0.53;;;;;;;5.69;85.59;95356.84;4371654;32;20181;-61
2023/01/10 04:31:39;;;;;;;0.00;0.00;;;;;;;5.76;85.59;95361.88;4383350;32;20243;-61
2023/01/10 04:34:05;;;;;;;0.20;0.20;;;;;;;5.67;86.06;95374.75;4364939;32;20177;-62
2023/01/10 04:36:31;;;;;;;0.10;0.10;;;;;;;5.73;86.65;95363.19;4369334;32;20181;-62
2023/01/10 04:38:56;;;;;;;0.20;0.20;;;;;;;5.67;86.23;95376.59;4371691;32;20317;-61
2023/01/10 04:41:23;;;;;;;0.10;0.10;;;;;;;5.62;86.98;95381.81;4380025;32;20177;-61
2023/01/10 04:43:48;;;;;;;0.27;0.27;;;;;;;5.57;87.16;95385.25;4365795;32;20169;-62
2023/01/10 04:46:14;;;;;;;0.07;0.07;;;;;;;5.55;88.04;95386.56;4369522;32;20402;-61
2023/01/10 04:48:40;;;;;;;0.17;0.17;;;;;;;5.51;88.09;95386.28;4374483;32;20181;-61
2023/01/10 04:51:05;;;;;;;0.10;0.10;;;;;;;5.60;87.25;95394.47;4373405;32;20203;-61
2023/01/10 04:53:30;;;;;;;0.23;0.23;;;;;;;5.65;87.76;95400.53;4363629;32;20185;-61
2023/01/10 04:56:02;;;;;;;0.00;0.00;;;;;;;5.59;88.84;95395.53;4359861;32;20185;-61
2023/01/10 04:58:28;;;;;;;0.10;0.10;;;;;;;5.74;88.00;95400.81;4370656;32;20216;-61
2023/01/10 05:00:53;;;;;;;0.00;0.00;;;;;;;5.58;88.62;95407.09;4373631;32;20408;-61
2023/01/10 05:03:19;;;;;;;0.00;0.00;;;;;;;5.41;89.43;95415.19;4384386;32;20208;-61
2023/01/10 05:05:44;;;;;;;0.10;0.10;;;;;;;5.35;90.58;95414.41;4387437;32;20199;-61
2023/01/10 05:08:11;;;;;;;0.10;0.10;;;;;;;5.29;90.91;95418.03;4385084;32;20202;-61
2023/01/10 05:10:36;;;;;;;0.37;0.37;;;;;;;5.29;91.80;95428.56;4368602;32;20206;-61
2023/01/10 05:13:01;;;;;;;0.17;0.17;;;;;;;5.24;92.53;95433.81;4365134;32;20270;-61
2023/01/10 05:15:27;;;;;;;0.30;0.30;;;;;;;5.24;92.23;95441.69;4363896;32;20239;-61
2023/01/10 05:17:59;;;;;;;0.20;0.20;;;;;;;5.32;92.40;95443.84;4373248;32;20200;-61
2023/01/10 05:20:25;;;;;;;0.03;0.03;;;;;;;5.36;92.93;95442.28;4374206;32;20185;-61
2023/01/10 05:22:50;;;;;;;0.20;0.20;;;;;;;5.39;92.23;95447.03;4373612;32;20302;-61
2023/01/10 05:25:16;;;;;;;0.40;0.20;;;;;;;5.43;92.09;95452.53;4368252;32;20252;-61
2023/01/10 05:27:42;;;;;;;0.20;0.20;;;;;;;5.41;92.52;95460.69;4361898;32;20173;-61
2023/01/10 05:30:10;;;;;;;0.00;0.00;;;;;;;5.30;92.47;95459.09;4371780;32;20259;-61
2023/01/10 05:32:35;;;;;;;0.27;0.27;;;;;;;5.42;92.13;95467.53;4373718;32;20283;-61
2023/01/10 05:35:01;;;;;;;0.30;0.30;;;;;;;5.50;91.90;95469.69;4363048;32;20289;-61
2023/01/10 05:37:26;;;;;;;0.37;0.33;;;;;;;5.32;93.13;95477.25;4381931;32;20177;-61
2023/01/10 05:39:51;;;;;;;0.53;0.53;;;;;;;5.29;92.99;95480.38;4373674;32;20185;-61
2023/01/10 05:42:17;;;;;;;0.00;0.00;;;;;;;5.28;93.32;95476.94;4374281;32;20229;-61
2023/01/10 05:44:42;;;;;;;0.10;0.10;;;;;;;5.28;93.57;95491.94;4369114;32;20185;-61
2023/01/10 05:47:07;;;;;;;0.20;0.07;;;;;;;5.30;92.97;95489.84;4345999;32;20255;-61
2023/01/10 05:49:32;;;;;;;0.10;0.10;;;;;;;5.42;92.65;95488.59;4375287;32;20189;-61
2023/01/10 05:51:58;;;;;;;0.37;0.37;;;;;;;5.35;91.71;95492.50;4374404;32;20184;-61
2023/01/10 05:54:23;;;;;;;0.10;0.10;;;;;;;5.43;92.64;95502.53;4384379;32;20185;-61
2023/01/10 05:56:48;;;;;;;0.10;0.10;;;;;;;5.36;92.33;95505.41;4374603;32;20177;-61
2023/01/10 05:59:14;;;;;;;0.13;0.13;;;;;;;5.46;91.33;95502.81;4381689;32;20184;-61
2023/01/10 06:01:39;;;;;;;0.10;0.10;;;;;;;5.31;91.43;95505.38;4380741;32;20176;-61
2023/01/10 06:04:04;;;;;;;0.20;0.20;;;;;;;5.39;91.48;95506.75;4380283;32;20224;-61
2023/01/10 06:06:30;;;;;;;0.00;0.00;;;;;;;5.26;91.71;95505.34;4349506;32;20255;-61
2023/01/10 06:08:57;;;;;;;0.10;0.10;;;;;;;5.17;92.24;95527.91;4353170;32;20244;-61
2023/01/10 06:11:28;;;;;;;0.07;0.07;;;;;;;5.21;92.26;95526.34;4361842;32;20189;-61
2023/01/10 06:13:55;;;;;;;0.10;0.10;;;;;;;5.21;92.23;95542.13;4341261;32;20277;-61
2023/01/10 06:16:20;;;;;;;0.20;0.20;;;;;;;5.26;91.55;95547.41;4352100;32;20337;-61
2023/01/10 06:18:45;;;;;;;0.00;0.00;;;;;;;5.12;91.72;95546.28;4365931;32;20287;-61
2023/01/10 06:21:11;;;;;;;0.10;0.10;;;;;;;5.21;91.55;95557.91;4345028;32;20187;-61
2023/01/10 06:23:36;;;;;;;0.07;0.07;;;;;;;5.18;91.61;95561.84;4360176;32;20260;-61
2023/01/10 06:26:01;;;;;;;0.00;0.00;;;;;;;5.21;91.46;95571.03;4356606;32;20197;-61
2023/01/10 06:28:27;;;;;;;0.10;0.10;;;;;;;5.25;91.53;95566.88;4338357;32;20244;-61
2023/01/10 06:30:52;;;;;;;0.20;0.20;;;;;;;5.30;90.83;95574.00;4360103;32;20197;-61
2023/01/10 06:33:17;;;;;;;0.00;0.00;;;;;;;5.47;90.15;95580.69;4355416;32;20228;-62
2023/01/10 06:35:45;;;;;;;0.10;0.10;;;;;;;5.38;89.82;95576.19;4337328;32;20250;-61
2023/01/10 06:38:11;;;;;;;0.17;0.17;;;;;;;5.41;89.56;95584.31;4339996;32;20182;-61
2023/01/10 06:40:36;;;;;;;0.10;0.10;;;;;;;5.40;89.39;95595.91;4352714;32;22232;-61
2023/01/10 06:43:01;;;;;;;0.10;0.10;;;;;;;5.42;89.79;95596.44;4334189;32;20178;-61
2023/01/10 06:45:27;;;;;;;0.10;0.10;;;;;;;5.40;89.91;95605.66;4342417;32;20186;-62
2023/01/10 06:47:52;;;;;;;0.10;0.10;;;;;;;5.42;89.55;95614.84;4351065;32;20188;-61
2023/01/10 06:50:18;;;;;;;0.40;0.40;;;;;;;5.36;89.25;95620.34;4368866;32;20212;-62
2023/01/10 06:52:43;;;;;;;0.30;0.30;;;;;;;5.42;89.20;95629.84;4352730;32;20215;-61
2023/01/10 06:55:09;;;;;;;0.20;0.20;;;;;;;5.40;89.25;95632.72;4370642;32;20185;-61
2023/01/10 06:57:36;;;;;;;2.00;0.90;;;;;;;5.45;89.33;95640.66;4352275;32;20254;-52
2023/01/10 07:00:04;;;;;;;1.23;0.83;;;;;;;8.11;100.00;95639.06;4319658;32;20182;-49
2023/01/10 07:02:30;;;;;;;3.50;0.43;;;;;;;9.35;100.00;95635.50;4361837;32;20356;-53
2023/01/10 07:04:55;;;;;;;0.10;0.10;;;;;;;10.13;92.03;95641.37;4374495;32;20318;-52
2023/01/10 07:07:20;;;;;;;0.23;0.23;;;;;;;10.73;78.31;95649.69;4386339;32;20188;-54
2023/01/10 07:09:46;;;;;;;2.43;0.57;;;;;;;11.39;75.87;95655.91;4391874;32;20184;-54
2023/01/10 07:12:11;;;;;;;0.00;0.00;;;;;;;11.95;71.36;95663.78;4372211;32;20184;-51
2023/01/10 07:14:36;;;;;;;0.37;0.37;;;;;;;12.01;69.79;95665.28;4368623;32;20264;-52
2023/01/10 07:17:03;;;;;;;0.67;0.40;;;;;;;11.70;69.54;95679.03;4381198;32;20252;-60
2023/01/10 07:19:29;;;;;;;0.10;0.10;;;;;;;9.85;66.73;95697.84;4377208;32;20296;-59
2023/01/10 07:21:54;;;;;;;0.00;0.00;;;;;;;8.30;72.72;95704.56;4381364;32;20250;-59
2023/01/10 07:24:19;;;;;;;0.30;0.30;;;;;;;7.08;78.17;95723.88;4376178;32;20263;-59
2023/01/10 07:26:46;;;;;;;0.30;0.30;;;;;;;6.68;81.40;95716.63;4389426;32;20185;-59
2023/01/10 07:29:12;;;;;;;0.00;0.00;;;;;;;6.43;83.00;95737.62;4378587;32;20193;-59
2023/01/10 07:31:37;;;;;;;0.10;0.10;;;;;;;6.31;83.96;95747.56;4379992;32;20352;-59
2023/01/10 07:34:02;;;;;;;0.10;0.10;;;;;;;6.03;85.07;95746.06;4370778;32;20188;-59
2023/01/10 07:36:28;;;;;;;0.00;0.00;;;;;;;5.84;85.93;95748.28;4375095;32;20296;-59
2023/01/10 07:38:53;;;;;;;0.10;0.10;;;;;;;5.82;86.40;95755.66;4360846;32;20180;-59
2023/01/10 07:41:19;;;;;;;0.10;0.10;;;;;;;5.70;87.42;95760.31;4377564;32;20180;-60
2023/01/10 07:43:44;;;;;;;1.03;0.40;;;;;;;5.67;87.21;95785.28;4387833;32;20214;-59
2023/01/10 07:46:11;;;;;;;0.10;0.10;;;;;;;5.73;87.97;95786.13;4365822;32;20196;-59
2023/01/10 07:48:37;;;;;;;0.10;0.10;;;;;;;5.64;88.64;95793.66;4379870;32;20176;-60
2023/01/10 07:51:04;;;;;;;0.17;0.17;;;;;;;5.38;89.39;95803.19;4383792;32;20268;-60
2023/01/10 07:53:30;;;;;;;0.10;0.10;;;;;;;5.42;89.44;95804.25;4362663;32;20296;-60
2023/01/10 07:56:00;;;;;;;0.30;0.30;;;;;;;5.40;90.24;95801.06;4389999;32;20286;-60
2023/01/10 07:58:26;;;;;;;0.10;0.10;;;;;;;5.32;89.34;95806.00;4373167;32;20172;-60
2023/01/10 08:00:51;;;;;;;0.27;0.27;;;;;;;5.45;88.88;95793.25;4374792;32;20306;-60
2023/01/10 08:03:17;;;;;;;0.50;0.50;;;;;;;5.44;89.16;95802.19;4391079;32;20379;-60
2023/01/10 08:05:43;;;;;;;0.60;0.60;;;;;;;5.52;89.43;95807.00;4374627;32;20211;-60
2023/01/10 08:08:10;;;;;;;0.40;0.40;;;;;;;5.37;89.36;95812.12;4374206;32;20177;-60
2023/01/10 08:10:38;;;;;;;0.33;0.33;;;;;;;5.36;89.51;95826.31;4386083;32;20268;-60
2023/01/10 08:13:04;;;;;;;0.30;0.30;;;;;;;5.31;89.56;95825.47;4354854;32;20257;-60
2023/01/10 08:15:30;;;;;;;0.30;0.30;;;;;;;5.19;89.28;95836.12;4361253;32;20272;-60
2023/01/10 08:17:59;;;;;;;0.10;0.10;;;;;;;5.36;89.65;95828.94;4388254;32;20298;-60
2023/01/10 08:20:27;;;;;;;0.27;0.27;;;;;;;5.22;89.11;95843.50;4367353;32;20285;-60
2023/01/10 08:22:52;;;;;;;0.13;0.13;;;;;;;5.17;89.66;95846.87;4388944;32;20330;-60
2023/01/10 08:25:17;;;;;;;0.40;0.40;;;;;;;5.19;90.63;95851.91;4388109;32;20308;-61
2023/01/10 08:27:43;;;;;;;0.63;0.63;;;;;;;5.17;90.55;95853.97;4397000;32;20199;-60
2023/01/10 08:30:09;;;;;;;0.13;0.13;;;;;;;5.15;90.44;95861.31;4375119;32;20191;-60
2023/01/10 08:32:34;;;;;;;0.77;0.77;;;;;;;5.18;90.81;95866.09;4370596;32;20196;-60
2023/01/10 08:35:00;;;;;;;0.37;0.37;;;;;;;5.38;90.17;95868.94;4380829;32;20280;-60
2023/01/10 08:37:25;;;;;;;0.30;0.30;;;;;;;5.39;89.84;95873.19;4387634;32;20188;-60
2023/01/10 08:39:50;;;;;;;1.10;0.73;;;;;;;5.57;89.39;95887.03;4364676;32;20192;-60
2023/01/10 08:42:17;;;;;;;0.53;0.53;;;;;;;5.37;90.07;95885.78;4372616;32;20275;-60
2023/01/10 08:44:43;;;;;;;0.23;0.23;;;;;;;5.39;89.92;95890.78;4370976;32;20193;-60
2023/01/10 08:47:09;;;;;;;0.73;0.50;;;;;;;5.56;89.75;95885.44;4379509;32;20321;-60
2023/01/10 08:49:34;;;;;;;0.17;0.17;;;;;;;5.57;89.09;95897.56;4384686;32;20285;-60
2023/01/10 08:52:05;;;;;;;0.40;0.40;;;;;;;5.59;88.46;95895.47;4377750;32;20183;-60
2023/01/10 08:54:31;;;;;;;0.10;0.10;;;;;;;5.46;88.40;95913.22;4383662;32;20184;-60
2023/01/10 08:56:57;;;;;;;0.53;0.53;;;;;;;5.55;87.95;95905.69;4389142;32;20299;-60
2023/01/10 08:59:22;;;;;;;0.20;0.20;;;;;;;5.62;87.97;95902.84;4388563;32;20287;-60
2023/01/10 09:01:48;;;;;;;0.10;0.10;;;;;;;5.62;87.88;95913.38;4387431;32;20212;-60
2023/01/10 09:04:13;;;;;;;0.47;0.47;;;;;;;5.42;88.31;95921.84;4391452;32;20188;-60
2023/01/10 09:06:38;;;;;;;0.40;0.40;;;;;;;5.65;88.58;95905.00;4375285;32;20196;-59
2023/01/10 09:09:04;;;;;;;0.10;0.10;;;;;;;5.60;87.69;95932.06;4388819;32;20177;-60
2023/01/10 09:11:29;;;;;;;0.10;0.10;;;;;;;5.80;87.56;95932.28;4382971;32;20210;-60
2023/01/10 09:13:55;;;;;;;0.40;0.27;;;;;;;5.73;86.42;95933.53;4389146;32;20244;-60
2023/01/10 09:16:20;;;;;;;0.00;0.00;;;;;;;5.69;86.42;95935.06;4386375;32;20263;-60
2023/01/10 09:18:46;;;;;;;0.30;0.30;;;;;;;5.79;86.15;95953.59;4375534;32;20200;-60
2023/01/10 09:21:11;;;;;;;0.50;0.17;;;;;;;5.42;88.13;95962.09;4387750;32;20195;-60
2023/01/10 09:23:38;;;;;;;0.17;0.17;;;;;;;5.44;89.06;95948.72;4387526;32;22590;-60
2023/01/10 09:26:04;;;;;;;0.10;0.10;;;;;;;5.71;88.29;95951.41;4387486;32;20198;-60
2023/01/10 09:28:29;;;;;;;0.17;0.17;;;;;;;5.70;87.50;95960.34;4390476;32;20283;-60
2023/01/10 09:30:54;;;;;;;0.30;0.30;;;;;;;5.72;87.85;95959.03;4383992;32;20206;-60
2023/01/10 09:33:20;;;;;;;0.10;0.10;;;;;;;5.59;88.25;95961.28;4382501;32;20176;-60
2023/01/10 09:35:50;;;;;;;4.50;0.60;;;;;;;5.64;89.02;95962.09;4385648;32;20207;-59
2023/01/10 09:38:21;;;;;;;0.80;0.80;;;;;;;5.70;89.10;95963.75;4388579;32;20188;-59
2023/01/10 09:41:20;;;;;;;1.33;1.23;;;;;;;5.76;88.56;95964.62;4389000;32;20290;-59
2023/01/10 09:44:16;;;;;;;0.50;0.50;;;;;;;5.83;88.81;95975.72;4389458;32;20287;-59
2023/01/10 09:46:49;;;;;;;0.60;0.60;;;;;;;5.71;88.54;95981.12;4388749;32;20276;-60
2023/01/10 09:49:46;;;;;;;0.30;0.20;;;;;;;5.89;88.58;95992.41;4364848;32;20355;-59
2023/01/10 09:52:40;;;;;;;0.10;0.10;;;;;;;5.78;88.50;95989.66;4371538;32;20284;-59
2023/01/10 09:55:19;;;;;;;0.20;0.20;;;;;;;5.91;89.09;95985.06;4384654;32;20368;-59
2023/01/10 09:57:45;;;;;;;0.47;0.47;;;;;;;5.89;89.42;95989.78;4378970;32;20275;-59
2023/01/10 10:00:20;;;;;;;0.30;0.30;;;;;;;6.02;88.87;95986.78;4378590;32;20302;-60
2023/01/10 10:02:50;;;;;;;0.40;0.40;;;;;;;6.17;88.22;95984.31;4389191;32;20188;-60
2023/01/10 10:05:20;;;;;;;0.20;0.20;;;;;;;6.22;87.87;95987.00;4364807;32;20284;-60
2023/01/10 10:07:51;;;;;;;0.10;0.10;;;;;;;6.65;86.64;95991.28;4376243;32;20276;-59
2023/01/10 10:10:38;;;;;;;4.00;0.73;;;;;;;6.54;85.24;95985.16;4347837;32;20385;-59
2023/01/10 10:13:11;;;;;;;0.13;0.13;;;;;;;6.52;84.72;95992.53;4363346;32;20268;-60
2023/01/10 10:15:46;;;;;;;0.20;0.20;;;;;;;6.53;84.86;95986.22;4388448;32;20291;-59
2023/01/10 10:18:49;;;;;;;0.53;0.33;;;;;;;6.62;83.54;95986.56;4377276;32;20275;-60
2023/01/10 10:21:35;;;;;;;0.50;0.50;;;;;;;6.57;82.72;95983.87;4376556;32;20272;-60
2023/01/10 10:24:12;;;;;;;0.00;0.00;;;;;;;6.54;82.60;95995.69;4387891;32;20272;-60
2023/01/10 10:26:59;;;;;;;0.60;0.50;;;;;;;6.69;80.46;95987.13;4376825;32;20284;-59
2023/01/10 10:29:35;;;;;;;0.20;0.20;;;;;;;6.83;79.24;95977.75;4390914;32;20292;-59
2023/01/10 10:32:09;;;;;;;0.70;0.70;;;;;;;6.79;77.72;95975.88;4381328;32;20268;-59
2023/01/10 10:34:40;;;;;;;2.83;0.60;;;;;;;6.69;78.12;95976.56;4391012;32;20266;-60
2023/01/10 10:37:20;;;;;;;0.20;0.20;;;;;;;6.78;79.11;95969.78;4391081;32;20269;-60
2023/01/10 10:39:54;;;;;;;0.50;0.50;;;;;;;7.04;77.17;95977.88;4391042;32;20268;-59
2023/01/10 10:42:20;;;;;;;0.20;0.20;;;;;;;6.97;76.29;95972.03;4389116;32;20323;-60
2023/01/10 10:45:01;;;;;;;0.10;0.10;;;;;;;6.93;77.25;95968.31;4391881;32;20290;-59
2023/01/10 10:47:32;;;;;;;0.40;0.40;;;;;;;6.92;76.76;95958.81;4374904;32;20210;-60
2023/01/10 10:50:13;;;;;;;0.40;0.40;;;;;;;7.02;75.47;95970.22;4391513;32;20276;-60
2023/01/10 10:52:38;;;;;;;0.60;0.40;;;;;;;6.90;75.93;95967.75;4389910;32;20449;-59
2023/01/10 10:55:06;;;;;;;0.10;0.10;;;;;;;6.90;76.02;95969.59;4370801;32;20334;-60
2023/01/10 10:57:37;;;;;;;1.13;0.50;;;;;;;6.94;76.98;95975.97;4389090;32;20188;-60
2023/01/10 11:00:04;;;;;;;0.33;0.20;;;;;;;7.04;75.04;95964.69;4390072;32;20416;-59
2023/01/10 11:02:32;;;;;;;0.57;0.57;;;;;;;6.93;74.25;95976.22;4369636;32;20328;-59
2023/01/10 11:05:13;;;;;;;0.40;0.40;;;;;;;7.01;74.61;95981.81;4374763;32;20318;-60
2023/01/10 11:07:39;;;;;;;0.30;0.30;;;;;;;6.83;72.73;95972.47;4391460;32;20276;-60
2023/01/10 11:12:46;;;;;;;0.40;0.23;;;;;;;7.07;71.07;95990.53;4391308;32;20283;-60
2023/01/10 11:15:43;;;;;;;0.13;0.13;;;;;;;6.89;70.23;95987.25;4390768;32;20269;-59
2023/01/10 11:18:15;;;;;;;0.10;0.10;;;;;;;7.00;71.29;95987.34;4390474;32;20305;-59
2023/01/10 11:21:14;;;;;;;0.13;0.13;;;;;;;6.95;70.33;95995.22;4388167;32;20305;-60
2023/01/10 11:23:39;;;;;;;1.03;0.80;;;;;;;6.64;68.72;96004.75;4373540;32;20311;-60
2023/01/10 11:26:08;;;;;;;0.47;0.47;;;;;;;6.80;68.36;96004.63;4378532;32;20268;-59
2023/01/10 11:28:35;;;;;;;0.40;0.40;;;;;;;6.66;69.42;95989.47;4376211;32;20199;-60
2023/01/10 11:31:02;;;;;;;4.07;0.87;;;;;;;6.71;69.38;96000.03;4384077;32;20318;-59
2023/01/10 11:33:34;;;;;;;0.10;0.10;;;;;;;6.93;68.55;95999.94;4376575;32;20284;-60
2023/01/10 11:36:14;;;;;;;0.13;0.13;;;;;;;6.90;66.86;96004.69;4376676;32;20323;-59
2023/01/10 11:38:41;;;;;;;0.10;0.10;;;;;;;6.89;66.10;95997.03;4387643;32;20324;-59
2023/01/10 11:41:30;;;;;;;0.20;0.20;;;;;;;6.53;66.24;96009.13;4390879;32;20268;-60
2023/01/10 11:44:30;;;;;;;0.20;0.20;;;;;;;6.73;67.20;96006.66;4380670;32;20313;-60
2023/01/10 11:47:00;;;;;;;0.97;0.37;;;;;;;6.77;68.07;96002.47;4387054;32;20335;-56
2023/01/10 11:49:37;;;;;;;0.60;0.60;;;;;;;6.42;68.62;96007.47;4362327;32;20299;-58
2023/01/10 11:52:12;;;;;;;0.43;0.43;;;;;;;6.44;72.36;96005.38;4387691;32;20279;-55
2023/01/10 11:54:40;;;;;;;0.40;0.40;;;;;;;6.53;71.87;96014.41;4381820;32;20283;-57
2023/01/10 11:57:09;;;;;;;0.43;0.43;;;;;;;6.47;72.22;96015.37;4390351;32;20287;-55
2023/01/10 11:59:34;;;;;;;0.20;0.20;;;;;;;6.39;72.34;96010.59;4385589;32;20283;-56
2023/01/10 12:02:03;;;;;;;0.00;0.00;;;;;;;6.48;70.20;96012.50;4388334;32;20268;-58
2023/01/10 12:04:32;;;;;;;0.40;0.40;;;;;;;6.53;70.16;96009.94;4379766;32;20199;-59